createdAt,value
2023-04-05T00:00:47.815Z,47.26
2023-04-05T00:03:17.964Z,46.96
2023-04-05T00:05:45.966Z,46.88
2023-04-05T00:08:23.782Z,47.41
2023-04-05T00:10:51.267Z,47.30
2023-04-05T00:13:18.673Z,47.30
2023-04-05T00:15:46.108Z,47.01
2023-04-05T00:18:21.721Z,46.77
2023-04-05T00:20:52.667Z,46.31
2023-04-05T00:23:21.448Z,47.15
2023-04-05T00:25:48.999Z,46.19
2023-04-05T00:28:16.604Z,45.60
2023-04-05T00:30:44.303Z,45.29
2023-04-05T00:33:14.875Z,45.27
2023-04-05T00:35:42.595Z,45.04
2023-04-05T00:38:10.083Z,45.29
2023-04-05T00:40:37.528Z,44.69
2023-04-05T00:43:04.963Z,44.90
2023-04-05T00:45:32.495Z,44.85
2023-04-05T00:48:01.041Z,44.37
2023-04-05T00:50:31.613Z,44.69
2023-04-05T00:52:59.142Z,43.58
2023-04-05T00:55:27.567Z,43.28
2023-04-05T00:57:56.054Z,43.87
2023-04-05T01:00:24.512Z,43.11
2023-04-05T01:02:55.203Z,43.53
2023-04-05T01:05:44.094Z,42.45
2023-04-05T01:08:20.526Z,42.65
2023-04-05T01:11:03.439Z,42.30
2023-04-05T01:13:33.104Z,42.50
2023-04-05T01:16:00.954Z,42.27
2023-04-05T01:18:33.060Z,41.81
2023-04-05T01:21:20.976Z,41.53
2023-04-05T01:24:16.340Z,41.09
2023-04-05T01:27:54.774Z,41.05
2023-04-05T01:30:26.809Z,41.42
2023-04-05T01:33:17.200Z,41.49
2023-04-05T01:36:02.927Z,41.64
2023-04-05T01:38:32.083Z,40.94
2023-04-05T01:40:59.580Z,41.40
2023-04-05T01:43:26.969Z,41.09
2023-04-05T01:45:55.033Z,41.55
2023-04-05T01:48:22.306Z,41.23
2023-04-05T01:50:49.626Z,41.43
2023-04-05T01:53:17.210Z,41.71
2023-04-05T01:55:44.496Z,41.62
2023-04-05T01:58:11.792Z,41.74
2023-04-05T02:00:39.526Z,41.67
2023-04-05T02:03:07.136Z,41.95
2023-04-05T02:05:34.510Z,42.41
2023-04-05T02:08:03.310Z,42.41
2023-04-05T02:10:30.694Z,42.68
2023-04-05T02:12:58.008Z,42.77
2023-04-05T02:15:25.330Z,43.13
2023-04-05T02:17:54.124Z,43.06
2023-04-05T02:20:21.695Z,43.23
2023-04-05T02:22:49.165Z,43.03
2023-04-05T02:25:16.610Z,43.13
2023-04-05T02:27:43.873Z,43.85
2023-04-05T02:30:13.968Z,44.11
2023-04-05T02:32:42.718Z,43.83
2023-04-05T02:35:10.743Z,43.49
2023-04-05T02:37:39.323Z,43.67
2023-04-05T02:40:13.567Z,43.69
2023-04-05T02:42:41.806Z,43.94
2023-04-05T02:45:09.703Z,43.54
2023-04-05T02:47:37.231Z,43.91
2023-04-05T02:50:05.164Z,44.01
2023-04-05T02:52:38.038Z,44.05
2023-04-05T02:55:07.432Z,44.02
2023-04-05T02:57:35.813Z,43.61
2023-04-05T03:00:19.292Z,43.79
2023-04-05T03:02:46.676Z,43.72
2023-04-05T03:05:18.668Z,44.03
2023-04-05T03:07:51.971Z,43.48
2023-04-05T03:10:26.290Z,43.36
2023-04-05T03:12:58.827Z,43.40
2023-04-05T03:15:28.351Z,42.84
2023-04-05T03:17:57.768Z,42.93
2023-04-05T03:20:25.905Z,42.90
2023-04-05T03:22:57.782Z,42.99
2023-04-05T03:25:30.006Z,42.48
2023-04-05T03:27:58.124Z,42.73
2023-04-05T03:30:30.780Z,42.84
2023-04-05T03:33:05.693Z,43.03
2023-04-05T03:35:40.653Z,42.74
2023-04-05T03:38:10.443Z,42.74
2023-04-05T03:40:43.575Z,42.89
2023-04-05T03:43:11.436Z,43.25
2023-04-05T03:45:39.050Z,42.50
2023-04-05T03:48:06.785Z,42.63
2023-04-05T03:50:34.137Z,42.76
2023-04-05T03:53:01.604Z,42.51
2023-04-05T03:55:29.548Z,42.35
2023-04-05T03:57:58.001Z,42.67
2023-04-05T04:00:30.533Z,42.79
2023-04-05T04:03:15.295Z,42.40
2023-04-05T04:05:46.752Z,42.56
2023-04-05T04:08:14.231Z,43.02
2023-04-05T04:10:41.573Z,44.38
2023-04-05T04:13:19.394Z,46.17
2023-04-05T04:15:52.449Z,46.92
2023-04-05T04:18:31.590Z,47.65
2023-04-05T04:21:25.108Z,48.08
2023-04-05T04:24:18.850Z,48.16
2023-04-05T04:27:02.917Z,48.71
2023-04-05T04:30:12.330Z,48.65
2023-04-05T04:32:52.049Z,46.35
2023-04-05T04:35:49.046Z,45.45
2023-04-05T04:38:45.523Z,45.44
2023-04-05T04:41:33.859Z,44.18
2023-04-05T04:44:15.041Z,43.66
2023-04-05T04:47:15.096Z,42.27
2023-04-05T04:50:11.995Z,43.40
2023-04-05T04:52:40.564Z,42.68
2023-04-05T04:55:14.379Z,43.17
2023-04-05T04:57:42.636Z,42.03
2023-04-05T05:00:13.550Z,41.88
2023-04-05T05:02:42.268Z,41.51
2023-04-05T05:05:10.691Z,41.70
2023-04-05T05:07:40.412Z,42.16
2023-04-05T05:10:09.197Z,42.68
2023-04-05T05:12:37.974Z,41.99
2023-04-05T05:15:06.031Z,41.86
2023-04-05T05:17:34.984Z,41.86
2023-04-05T05:20:05.467Z,42.33
2023-04-05T05:22:32.828Z,42.41
2023-04-05T05:25:00.164Z,42.51
2023-04-05T05:27:28.374Z,42.39
2023-04-05T05:29:55.858Z,42.20
2023-04-05T05:32:23.329Z,42.45
2023-04-05T05:34:50.692Z,43.07
2023-04-05T05:37:18.440Z,42.70
2023-04-05T05:39:45.899Z,43.10
2023-04-05T05:42:13.359Z,42.72
2023-04-05T05:44:40.945Z,42.54
2023-04-05T05:47:08.364Z,42.67
2023-04-05T05:49:35.732Z,42.41
2023-04-05T05:52:04.204Z,42.59
2023-04-05T05:54:31.669Z,42.32
2023-04-05T05:56:59.171Z,42.04
2023-04-05T05:59:26.835Z,42.29
2023-04-05T06:01:55.235Z,42.20
2023-04-05T06:04:22.803Z,42.19
2023-04-05T06:06:50.370Z,41.66
2023-04-05T06:09:17.773Z,41.57
2023-04-05T06:11:55.623Z,41.90
2023-04-05T06:14:25.220Z,41.51
2023-04-05T06:16:52.869Z,41.12
2023-04-05T06:19:20.213Z,41.10
2023-04-05T06:21:47.850Z,41.03
2023-04-05T06:24:15.398Z,41.27
2023-04-05T06:26:42.750Z,41.21
2023-04-05T06:29:10.112Z,40.98
2023-04-05T06:31:37.984Z,41.05
2023-04-05T06:34:05.944Z,40.62
2023-04-05T06:36:34.336Z,40.41
2023-04-05T06:39:01.928Z,39.76
2023-04-05T06:41:29.340Z,40.08
2023-04-05T06:43:56.815Z,39.25
2023-04-05T06:46:24.796Z,39.32
2023-04-05T06:48:52.915Z,39.10
2023-04-05T06:51:20.966Z,38.88
2023-04-05T06:53:48.383Z,38.91
2023-04-05T06:56:15.784Z,39.13
2023-04-05T06:58:44.141Z,39.02
2023-04-05T07:01:12.157Z,38.44
2023-04-05T07:03:39.611Z,38.04
2023-04-05T07:06:07.142Z,38.35
2023-04-05T07:08:34.479Z,38.26
2023-04-05T07:11:01.921Z,38.63
2023-04-05T07:13:29.330Z,38.61
2023-04-05T07:16:01.756Z,39.01
2023-04-05T07:18:30.109Z,39.51
2023-04-05T07:21:02.091Z,39.22
2023-04-05T07:23:30.527Z,38.80
2023-04-05T07:26:05.188Z,39.15
2023-04-05T07:28:33.890Z,38.48
2023-04-05T07:31:02.697Z,38.52
2023-04-05T07:33:30.411Z,38.67
2023-04-05T07:35:58.125Z,38.07
2023-04-05T07:38:26.888Z,37.68
2023-04-05T07:40:54.261Z,38.30
2023-04-05T07:43:21.769Z,38.68
2023-04-05T07:45:49.062Z,38.34
2023-04-05T07:48:16.351Z,38.03
2023-04-05T07:50:47.654Z,36.68
2023-04-05T07:53:15.498Z,36.12
2023-04-05T07:55:43.191Z,36.28
2023-04-05T07:58:11.138Z,36.95
2023-04-05T08:00:39.091Z,36.78
2023-04-05T08:03:06.632Z,37.71
2023-04-05T08:05:34.019Z,37.93
2023-04-05T08:08:01.398Z,37.93
2023-04-05T08:10:28.692Z,36.89
2023-04-05T08:12:56.022Z,36.72
2023-04-05T08:15:23.352Z,37.13
2023-04-05T08:17:50.784Z,37.45
2023-04-05T08:20:18.207Z,35.44
2023-04-05T08:22:45.514Z,35.00
2023-04-05T08:25:12.811Z,35.77
2023-04-05T08:27:40.208Z,36.59
2023-04-05T08:30:08.848Z,36.71
2023-04-05T08:32:36.473Z,36.49
2023-04-05T08:35:04.017Z,36.49
2023-04-05T08:37:34.900Z,36.48
2023-04-05T08:40:04.515Z,36.48
2023-04-05T08:42:41.377Z,36.69
2023-04-05T08:45:14.739Z,36.15
2023-04-05T08:47:42.829Z,36.00
2023-04-05T08:50:10.673Z,35.63
2023-04-05T08:52:39.595Z,35.13
2023-04-05T08:55:07.399Z,35.15
2023-04-05T08:57:37.682Z,34.37
2023-04-05T09:00:08.283Z,33.72
2023-04-05T09:02:36.370Z,33.61
2023-04-05T09:05:08.875Z,33.84
2023-04-05T09:07:37.301Z,33.64
2023-04-05T09:10:07.129Z,33.25
2023-04-05T09:12:35.903Z,32.58
2023-04-05T09:15:03.481Z,31.63
2023-04-05T09:17:32.661Z,30.11
2023-04-05T09:20:00.181Z,30.30
2023-04-05T09:22:27.579Z,30.46
2023-04-05T09:24:54.930Z,31.62
2023-04-05T09:27:23.712Z,33.29
2023-04-05T09:29:56.490Z,34.62
2023-04-05T09:32:27.778Z,35.22
2023-04-05T09:34:55.416Z,35.42
2023-04-05T09:37:29.165Z,35.28
2023-04-05T09:40:04.543Z,35.59
2023-04-05T09:42:45.364Z,34.96
2023-04-05T09:45:13.939Z,35.03
2023-04-05T09:47:59.291Z,34.86
2023-04-05T09:50:27.230Z,34.97
2023-04-05T09:53:18.646Z,36.07
2023-04-05T09:55:48.538Z,35.16
2023-04-05T09:58:21.455Z,35.55
2023-04-05T10:00:57.911Z,35.82
2023-04-05T10:03:30.840Z,35.10
2023-04-05T10:05:58.260Z,35.69
2023-04-05T10:08:26.121Z,35.30
2023-04-05T10:10:55.844Z,35.54
2023-04-05T10:13:23.616Z,35.85
2023-04-05T10:15:56.495Z,36.47
2023-04-05T10:18:30.465Z,35.12
2023-04-05T10:20:59.870Z,36.02
2023-04-05T10:23:34.294Z,35.62
2023-04-05T10:26:10.286Z,35.75
2023-04-05T10:28:42.170Z,35.83
2023-04-05T10:31:37.224Z,35.89
2023-04-05T10:34:07.942Z,35.72
2023-04-05T10:36:53.890Z,35.15
2023-04-05T10:39:45.395Z,35.87
2023-04-05T10:42:44.269Z,36.13
2023-04-05T10:45:17.344Z,36.20
2023-04-05T10:47:57.929Z,36.04
2023-04-05T10:50:25.838Z,35.75
2023-04-05T10:52:56.030Z,35.39
2023-04-05T10:55:23.626Z,35.49
2023-04-05T10:57:51.993Z,35.79
2023-04-05T11:00:20.491Z,35.13
2023-04-05T11:02:53.740Z,35.40
2023-04-05T11:05:35.160Z,35.44
2023-04-05T11:08:07.707Z,35.62
2023-04-05T11:10:39.574Z,35.58
2023-04-05T11:13:08.195Z,35.36
2023-04-05T11:15:35.965Z,35.60
2023-04-05T11:18:22.326Z,36.30
2023-04-05T11:20:51.994Z,36.74
2023-04-05T11:23:21.747Z,36.14
2023-04-05T11:26:05.709Z,36.17
2023-04-05T11:28:40.532Z,36.42
2023-04-05T11:31:15.240Z,36.34
2023-04-05T11:33:42.691Z,35.55
2023-04-05T11:36:11.053Z,36.01
2023-04-05T11:38:41.180Z,36.10
2023-04-05T11:41:17.666Z,35.70
2023-04-05T11:43:47.443Z,35.52
2023-04-05T11:46:15.637Z,35.27
2023-04-05T11:48:43.340Z,35.06
2023-04-05T11:51:10.874Z,35.21
2023-04-05T11:53:38.826Z,35.31
2023-04-05T11:56:13.796Z,35.40
2023-04-05T11:58:42.126Z,35.07
2023-04-05T12:01:09.796Z,35.29
2023-04-05T12:03:37.748Z,34.72
2023-04-05T12:06:06.771Z,35.03
2023-04-05T12:08:56.032Z,34.77
2023-04-05T12:11:28.123Z,35.12
2023-04-05T12:14:00.443Z,34.46
2023-04-05T12:16:28.912Z,34.25
2023-04-05T12:18:58.532Z,34.27
2023-04-05T12:21:27.499Z,34.60
2023-04-05T12:23:55.515Z,35.53
2023-04-05T12:26:23.338Z,34.81
2023-04-05T12:28:54.143Z,35.90
2023-04-05T12:31:42.862Z,34.83
2023-04-05T12:34:13.112Z,35.17
2023-04-05T12:36:45.294Z,34.08
2023-04-05T12:39:12.676Z,34.19
2023-04-05T12:41:40.396Z,34.49
2023-04-05T12:44:29.918Z,34.47
2023-04-05T12:47:05.304Z,34.97
2023-04-05T12:49:37.972Z,34.55
2023-04-05T12:52:05.563Z,34.65
2023-04-05T12:54:34.175Z,34.54
2023-04-05T12:57:04.488Z,34.47
2023-04-05T12:59:32.117Z,33.98
2023-04-05T13:01:59.528Z,35.13
2023-04-05T13:04:26.935Z,34.71
2023-04-05T13:06:55.283Z,34.16
2023-04-05T13:09:22.691Z,34.24
2023-04-05T13:11:51.006Z,33.93
2023-04-05T13:14:18.672Z,34.46
2023-04-05T13:16:46.229Z,34.43
2023-04-05T13:19:13.646Z,34.53
2023-04-05T13:21:41.449Z,34.95
2023-04-05T13:24:10.826Z,34.11
2023-04-05T13:26:39.769Z,34.55
2023-04-05T13:29:08.404Z,34.72
2023-04-05T13:31:38.632Z,34.97
2023-04-05T13:34:06.089Z,35.06
2023-04-05T13:36:33.562Z,34.15
2023-04-05T13:39:00.887Z,34.15
2023-04-05T13:41:28.277Z,34.52
2023-04-05T13:43:55.717Z,34.45
2023-04-05T13:46:23.195Z,34.01
2023-04-05T13:48:50.721Z,34.13
2023-04-05T13:51:18.197Z,34.17
2023-04-05T13:53:45.876Z,33.99
2023-04-05T13:56:13.253Z,34.21
2023-04-05T13:58:40.819Z,33.86
2023-04-05T14:01:08.180Z,34.41
2023-04-05T14:03:35.651Z,34.32
2023-04-05T14:06:03.162Z,34.66
2023-04-05T14:08:30.633Z,34.50
2023-04-05T14:10:58.078Z,33.66
2023-04-05T14:13:25.480Z,33.54
2023-04-05T14:15:53.661Z,33.53
2023-04-05T14:18:21.213Z,33.90
2023-04-05T14:20:48.704Z,33.91
2023-04-05T14:23:16.361Z,34.12
2023-04-05T14:25:43.841Z,34.45
2023-04-05T14:28:11.239Z,34.31
2023-04-05T14:30:38.893Z,34.10
2023-04-05T14:33:06.666Z,34.09
2023-04-05T14:35:34.109Z,33.51
2023-04-05T14:38:01.551Z,33.28
2023-04-05T14:40:29.130Z,33.43
2023-04-05T14:42:56.695Z,34.20
2023-04-05T14:45:27.235Z,33.90
2023-04-05T14:47:55.785Z,34.05
2023-04-05T14:50:23.488Z,34.10
2023-04-05T14:52:53.038Z,33.61
2023-04-05T14:55:20.507Z,33.71
2023-04-05T14:57:47.923Z,34.04
2023-04-05T15:00:15.851Z,34.16
2023-04-05T15:02:45.468Z,34.00
2023-04-05T15:05:13.004Z,33.83
2023-04-05T15:07:40.568Z,33.80
2023-04-05T15:10:08.354Z,33.64
2023-04-05T15:12:35.910Z,34.15
2023-04-05T15:15:03.444Z,33.93
2023-04-05T15:17:31.010Z,33.55
2023-04-05T15:19:58.418Z,33.12
2023-04-05T15:22:25.915Z,33.36
2023-04-05T15:24:53.429Z,33.60
2023-04-05T15:27:21.027Z,33.67
2023-04-05T15:29:48.463Z,33.26
2023-04-05T15:32:16.271Z,33.17
2023-04-05T15:34:43.856Z,32.81
2023-04-05T15:37:11.562Z,33.15
2023-04-05T15:39:39.107Z,33.94
2023-04-05T15:42:06.611Z,34.07
2023-04-05T15:44:34.138Z,33.87
2023-04-05T15:47:02.500Z,34.00
2023-04-05T15:49:29.874Z,33.99
2023-04-05T15:51:57.916Z,33.74
2023-04-05T15:54:25.314Z,33.65
2023-04-05T15:56:52.696Z,33.90
2023-04-05T15:59:20.253Z,33.59
2023-04-05T16:01:47.735Z,33.48
2023-04-05T16:04:15.652Z,33.50
2023-04-05T16:06:43.150Z,33.41
2023-04-05T16:09:10.526Z,33.75
2023-04-05T16:11:38.129Z,34.18
2023-04-05T16:14:05.882Z,34.67
2023-04-05T16:16:41.899Z,34.16
2023-04-05T16:19:13.817Z,34.01
2023-04-05T16:21:42.208Z,33.78
2023-04-05T16:24:09.684Z,33.66
2023-04-05T16:26:37.202Z,34.81
2023-04-05T16:29:05.186Z,34.62
2023-04-05T16:31:32.994Z,34.61
2023-04-05T16:34:00.471Z,34.83
2023-04-05T16:36:27.873Z,34.71
2023-04-05T16:38:55.971Z,35.14
2023-04-05T16:41:24.001Z,34.63
2023-04-05T16:43:51.902Z,35.16
2023-04-05T16:46:19.309Z,35.34
2023-04-05T16:48:46.841Z,35.21
2023-04-05T16:51:15.784Z,35.01
2023-04-05T16:53:43.295Z,35.92
2023-04-05T16:56:10.817Z,35.74
2023-04-05T16:58:38.247Z,35.80
2023-04-05T17:01:05.811Z,36.22
2023-04-05T17:03:33.509Z,34.42
2023-04-05T17:06:01.730Z,33.41
2023-04-05T17:08:29.502Z,33.42
2023-04-05T17:10:56.923Z,32.79
2023-04-05T17:13:24.561Z,32.14
2023-04-05T17:15:52.026Z,31.64
2023-04-05T17:18:19.446Z,32.31
2023-04-05T17:20:46.866Z,31.65
2023-04-05T17:23:14.311Z,31.68
2023-04-05T17:25:41.867Z,32.15
2023-04-05T17:28:09.764Z,32.26
2023-04-05T17:30:37.310Z,32.42
2023-04-05T17:33:04.778Z,31.71
2023-04-05T17:35:32.876Z,31.83
2023-04-05T17:38:03.308Z,31.83
2023-04-05T17:40:31.234Z,31.59
2023-04-05T17:42:58.607Z,31.37
2023-04-05T17:45:27.500Z,31.55
2023-04-05T17:47:54.946Z,31.75
2023-04-05T17:50:24.767Z,31.88
2023-04-05T17:52:52.344Z,31.86
2023-04-05T17:55:19.689Z,31.77
2023-04-05T17:57:47.076Z,31.47
2023-04-05T18:00:14.998Z,31.99
2023-04-05T18:02:42.558Z,31.90
2023-04-05T18:05:10.292Z,31.76
2023-04-05T18:07:38.327Z,31.66
2023-04-05T18:10:06.861Z,32.04
2023-04-05T18:12:34.472Z,31.93
2023-04-05T18:15:01.970Z,31.90
2023-04-05T18:17:29.311Z,32.07
2023-04-05T18:19:57.190Z,32.06
2023-04-05T18:22:24.575Z,32.38
2023-04-05T18:24:51.993Z,32.20
2023-04-05T18:27:19.295Z,32.01
2023-04-05T18:29:46.843Z,32.37
2023-04-05T18:32:14.596Z,32.59
2023-04-05T18:34:42.096Z,33.49
2023-04-05T18:37:09.619Z,30.44
2023-04-05T18:39:37.062Z,30.42
2023-04-05T18:42:04.649Z,29.37
2023-04-05T18:44:32.306Z,29.85
2023-04-05T18:47:01.061Z,29.10
2023-04-05T18:49:28.491Z,29.43
2023-04-05T18:51:56.051Z,29.56
2023-04-05T18:54:23.496Z,29.95
2023-04-05T18:56:51.055Z,29.76
2023-04-05T18:59:18.535Z,29.39
2023-04-05T19:01:46.022Z,29.58
2023-04-05T19:04:13.461Z,30.13
2023-04-05T19:06:40.916Z,30.34
2023-04-05T19:09:08.634Z,30.50
2023-04-05T19:11:36.469Z,30.89
2023-04-05T19:14:04.127Z,30.40
2023-04-05T19:16:31.851Z,30.19
2023-04-05T19:18:59.488Z,30.30
2023-04-05T19:21:27.496Z,31.10
2023-04-05T19:23:56.078Z,30.75
2023-04-05T19:26:23.726Z,31.07
2023-04-05T19:28:51.216Z,31.78
2023-04-05T19:31:18.643Z,32.17
2023-04-05T19:33:46.241Z,31.82
2023-04-05T19:36:13.705Z,31.51
2023-04-05T19:38:41.308Z,31.49
2023-04-05T19:41:08.848Z,31.67
2023-04-05T19:43:36.897Z,32.18
2023-04-05T19:46:08.207Z,32.17
2023-04-05T19:48:39.983Z,31.36
2023-04-05T19:51:09.155Z,32.12
2023-04-05T19:53:43.982Z,32.31
2023-04-05T19:56:22.924Z,31.37
2023-04-05T19:59:04.046Z,31.40
2023-04-05T20:01:33.520Z,31.98
2023-04-05T20:04:22.209Z,31.54
2023-04-05T20:06:54.210Z,32.38
2023-04-05T20:09:26.837Z,32.37
2023-04-05T20:11:59.324Z,32.88
2023-04-05T20:14:36.175Z,32.29
2023-04-05T20:17:04.415Z,32.62
2023-04-05T20:19:31.932Z,32.59
2023-04-05T20:22:05.902Z,32.55
2023-04-05T20:24:33.668Z,32.90
2023-04-05T20:27:03.162Z,32.55
2023-04-05T20:29:33.742Z,32.62
2023-04-05T20:32:02.167Z,33.66
2023-04-05T20:34:32.181Z,34.37
2023-04-05T20:37:01.929Z,34.93
2023-04-05T20:40:02.268Z,34.90
2023-04-05T20:42:33.088Z,35.19
2023-04-05T20:45:00.522Z,35.38
2023-04-05T20:47:27.928Z,35.73
2023-04-05T20:49:55.393Z,35.32
2023-04-05T20:52:22.798Z,35.61
2023-04-05T20:54:51.199Z,35.63
2023-04-05T20:57:19.222Z,35.93
2023-04-05T20:59:46.944Z,35.92
2023-04-05T21:02:14.509Z,36.01
2023-04-05T21:04:42.023Z,36.07
2023-04-05T21:07:09.397Z,36.07
2023-04-05T21:09:36.781Z,36.16
2023-04-05T21:12:04.349Z,36.60
2023-04-05T21:14:31.728Z,36.60
2023-04-05T21:16:59.129Z,36.79
2023-04-05T21:19:26.493Z,36.19
2023-04-05T21:21:53.913Z,36.82
2023-04-05T21:24:21.242Z,37.31
2023-04-05T21:26:48.617Z,37.42
2023-04-05T21:29:15.976Z,37.16
2023-04-05T21:31:43.488Z,37.12
2023-04-05T21:34:11.073Z,37.80
2023-04-05T21:36:38.425Z,37.88
2023-04-05T21:39:06.023Z,37.45
2023-04-05T21:41:33.590Z,37.76
2023-04-05T21:44:01.006Z,38.19
2023-04-05T21:46:28.513Z,38.35
2023-04-05T21:48:55.962Z,38.63
2023-04-05T21:51:23.407Z,38.95
2023-04-05T21:53:50.875Z,39.18
2023-04-05T21:56:19.129Z,39.17
2023-04-05T21:58:46.551Z,38.55
2023-04-05T22:01:14.018Z,39.42
2023-04-05T22:03:41.408Z,39.39
2023-04-05T22:06:08.758Z,39.13
2023-04-05T22:08:36.417Z,39.95
2023-04-05T22:11:03.992Z,39.42
2023-04-05T22:13:31.528Z,39.55
2023-04-05T22:15:58.888Z,40.11
2023-04-05T22:18:27.274Z,41.06
2023-04-05T22:20:54.806Z,41.71
2023-04-05T22:23:22.315Z,43.46
2023-04-05T22:25:49.774Z,43.34
2023-04-05T22:28:17.162Z,43.08
2023-04-05T22:30:44.669Z,43.18
2023-04-05T22:33:15.187Z,43.28
2023-04-05T22:35:42.833Z,43.49
2023-04-05T22:38:10.513Z,42.57
2023-04-05T22:40:38.045Z,42.49
2023-04-05T22:43:05.552Z,42.87
2023-04-05T22:45:32.947Z,42.07
2023-04-05T22:48:00.454Z,41.97
2023-04-05T22:50:27.893Z,41.50
2023-04-05T22:52:55.500Z,41.82
2023-04-05T22:55:22.998Z,42.81
2023-04-05T22:57:50.639Z,42.33
2023-04-05T23:00:18.082Z,42.54
2023-04-05T23:02:45.598Z,42.38
2023-04-05T23:05:13.222Z,41.24
2023-04-05T23:07:40.659Z,41.75
2023-04-05T23:10:08.352Z,41.89
2023-04-05T23:12:36.215Z,42.24
2023-04-05T23:15:03.959Z,42.38
2023-04-05T23:17:31.644Z,41.14
2023-04-05T23:19:59.029Z,40.85
2023-04-05T23:22:26.724Z,41.71
2023-04-05T23:24:54.113Z,42.51
2023-04-05T23:27:21.644Z,41.93
2023-04-05T23:29:49.005Z,42.36
2023-04-05T23:32:16.488Z,42.20
2023-04-05T23:34:43.900Z,42.63
2023-04-05T23:37:11.541Z,42.56
2023-04-05T23:39:42.455Z,42.43
2023-04-05T23:42:10.035Z,42.64
2023-04-05T23:44:37.656Z,44.08
2023-04-05T23:47:05.217Z,44.90
2023-04-05T23:49:32.651Z,46.51
2023-04-05T23:52:00.404Z,45.95
2023-04-05T23:54:27.769Z,46.31
2023-04-05T23:56:55.928Z,47.63
2023-04-05T23:59:23.366Z,48.40
